Time;durP1;ratioP1;P1;durP2;ratioP2;P2;SDS_P1;SDS_P2;PMS_P1;PMS_P2;Temp;Humidity;BMP_temperature;BMP_pressure;BME280_temperature;BME280_humidity;BME280_pressure;Samples;Min_cycle;Max_cycle;Signal;HPM_P1;HPM_P2
2020/05/30 00:01:13;;;;;;;1.57;1.38;;;;;;;19.74;43.95;101107.68;;;;-52
2020/05/30 00:04:14;;;;;;;1.61;1.49;;;;;;;19.74;43.94;101108.98;;;;-52
2020/05/30 00:07:14;;;;;;;1.50;1.40;;;;;;;19.74;43.79;101110.53;;;;-53
2020/05/30 00:10:13;;;;;;;1.44;1.34;;;;;;;19.73;43.91;101109.99;;;;-53
2020/05/30 00:13:13;;;;;;;1.57;1.43;;;;;;;19.73;43.87;101111.73;;;;-53
2020/05/30 00:16:13;;;;;;;1.55;1.40;;;;;;;19.72;43.86;101107.47;;;;-53
2020/05/30 00:22:20;;;;;;;1.80;1.43;;;;;;;19.72;43.86;101107.87;;;;-53
2020/05/30 00:25:20;;;;;;;1.57;1.47;;;;;;;19.70;43.76;101105.29;;;;-53
2020/05/30 00:28:13;;;;;;;1.67;1.50;;;;;;;19.70;43.76;101102.77;;;;-52
2020/05/30 00:31:13;;;;;;;1.63;1.53;;;;;;;19.71;43.73;101100.33;;;;-52
2020/05/30 00:34:13;;;;;;;1.45;1.35;;;;;;;19.70;43.73;101096.30;;;;-52
2020/05/30 00:37:13;;;;;;;1.55;1.45;;;;;;;19.70;43.73;101105.79;;;;-52
2020/05/30 00:43:13;;;;;;;1.48;1.38;;;;;;;19.70;43.72;101100.55;;;;-52
2020/05/30 00:46:12;;;;;;;1.51;1.41;;;;;;;19.69;43.60;101101.44;;;;-53
2020/05/30 00:49:13;;;;;;;1.50;1.40;;;;;;;19.68;43.68;101100.05;;;;-53
2020/05/30 00:52:13;;;;;;;1.43;1.30;;;;;;;19.68;43.65;101093.58;;;;-52
2020/05/30 00:55:13;;;;;;;1.61;1.50;;;;;;;19.68;43.66;101099.27;;;;-53
2020/05/30 00:58:13;;;;;;;1.51;1.41;;;;;;;19.68;43.62;101097.99;;;;-52
2020/05/30 01:01:13;;;;;;;1.95;1.50;;;;;;;19.68;43.63;101093.24;;;;-53
2020/05/30 01:04:14;;;;;;;1.39;1.29;;;;;;;19.67;43.67;101094.63;;;;-52
2020/05/30 01:07:13;;;;;;;1.45;1.35;;;;;;;19.66;43.54;101100.55;;;;-53
2020/05/30 01:10:14;;;;;;;1.53;1.43;;;;;;;19.67;43.56;101099.81;;;;-52
2020/05/30 01:13:14;;;;;;;1.44;1.30;;;;;;;19.67;43.59;101102.00;;;;-53
2020/05/30 01:16:17;;;;;;;1.40;1.30;;;;;;;19.66;43.57;101099.93;;;;-53
2020/05/30 01:19:13;;;;;;;1.50;1.40;;;;;;;19.66;43.55;101097.66;;;;-53
2020/05/30 01:22:13;;;;;;;1.40;1.30;;;;;;;19.66;43.51;101099.38;;;;-53
2020/05/30 01:25:13;;;;;;;1.67;1.29;;;;;;;19.65;43.50;101099.32;;;;-52
2020/05/30 01:28:13;;;;;;;1.47;1.30;;;;;;;19.65;43.62;101098.31;;;;-52
2020/05/30 01:31:13;;;;;;;1.57;1.47;;;;;;;19.65;43.47;101091.11;;;;-53
2020/05/30 01:34:13;;;;;;;2.17;1.41;;;;;;;19.64;43.54;101090.84;;;;-52
2020/05/30 01:37:13;;;;;;;1.33;1.23;;;;;;;19.64;43.56;101081.06;;;;-52
2020/05/30 01:40:13;;;;;;;1.63;1.33;;;;;;;19.64;43.50;101081.97;;;;-52
2020/05/30 01:52:24;;;;;;;1.37;1.27;;;;;;;19.63;43.49;101082.08;;;;-52
2020/05/30 01:55:12;;;;;;;1.49;1.39;;;;;;;19.63;43.47;101081.50;;;;-53
2020/05/30 01:58:13;;;;;;;1.55;1.45;;;;;;;19.62;43.47;101084.42;;;;-52
2020/05/30 02:01:14;;;;;;;1.84;1.30;;;;;;;19.63;43.52;101086.20;;;;-53
2020/05/30 02:04:12;;;;;;;1.50;1.40;;;;;;;19.62;43.40;101083.24;;;;-52
2020/05/30 02:07:12;;;;;;;1.41;1.31;;;;;;;19.62;43.48;101082.97;;;;-52
2020/05/30 02:17:27;;;;;;;1.30;1.20;;;;;;;19.61;43.49;101088.50;;;;-53
2020/05/30 02:20:12;;;;;;;1.35;1.25;;;;;;;19.61;43.34;101088.67;;;;-53
2020/05/30 02:23:26;;;;;;;1.54;1.24;;;;;;;19.60;43.43;101087.83;;;;-52
2020/05/30 02:26:12;;;;;;;1.46;1.36;;;;;;;19.60;43.28;101089.96;;;;-53
2020/05/30 02:29:12;;;;;;;1.30;1.20;;;;;;;19.60;43.44;101082.34;;;;-52
2020/05/30 02:32:14;;;;;;;1.52;1.37;;;;;;;19.60;43.37;101087.11;;;;-52
2020/05/30 02:35:23;;;;;;;1.35;1.25;;;;;;;19.60;43.42;101091.39;;;;-52
2020/05/30 02:38:12;;;;;;;1.47;1.37;;;;;;;19.60;43.40;101093.74;;;;-53
2020/05/30 02:41:12;;;;;;;1.49;1.39;;;;;;;19.59;43.33;101096.38;;;;-53
2020/05/30 02:47:26;;;;;;;1.40;1.30;;;;;;;19.58;43.33;101100.28;;;;-53
2020/05/30 02:50:17;;;;;;;1.42;1.32;;;;;;;19.59;43.34;101098.37;;;;-53
2020/05/30 02:53:14;;;;;;;1.57;1.31;;;;;;;19.58;43.24;101100.52;;;;-52
2020/05/30 02:56:13;;;;;;;1.27;1.18;;;;;;;19.58;43.34;101100.00;;;;-52
2020/05/30 02:59:12;;;;;;;1.32;1.20;;;;;;;19.58;43.32;101101.52;;;;-52
2020/05/30 03:02:19;;;;;;;1.40;1.30;;;;;;;19.58;43.34;101098.83;;;;-52
2020/05/30 03:05:12;;;;;;;1.33;1.23;;;;;;;19.57;43.33;101101.73;;;;-52
2020/05/30 03:12:25;;;;;;;1.41;1.31;;;;;;;19.56;43.33;101097.33;;;;-52
2020/05/30 03:20:36;;;;;;;1.31;1.21;;;;;;;19.56;43.28;101095.38;;;;-53
2020/05/30 03:24:12;;;;;;;1.42;1.32;;;;;;;19.56;43.33;101093.20;;;;-53
2020/05/30 03:27:18;;;;;;;1.37;1.27;;;;;;;19.56;43.35;101093.52;;;;-52
2020/05/30 03:35:24;;;;;;;1.33;1.23;;;;;;;19.55;43.33;101095.92;;;;-52
2020/05/30 03:38:19;;;;;;;1.31;1.21;;;;;;;19.54;43.35;101094.86;;;;-52
2020/05/30 03:41:25;;;;;;;1.43;1.27;;;;;;;19.54;43.24;101097.04;;;;-53
2020/05/30 03:44:22;;;;;;;1.30;1.20;;;;;;;19.54;43.35;101097.87;;;;-52
2020/05/30 03:47:22;;;;;;;1.11;1.11;;;;;;;19.54;43.42;101100.63;;;;-52
2020/05/30 03:55:18;;;;;;;1.23;1.20;;;;;;;19.54;43.34;101103.13;;;;-52
2020/05/30 03:59:40;;;;;;;1.65;1.55;;;;;;;19.52;43.24;101103.64;;;;-53
2020/05/30 04:03:35;;;;;;;1.35;1.25;;;;;;;19.53;43.28;101103.25;;;;-52
2020/05/30 04:06:22;;;;;;;1.30;1.20;;;;;;;19.52;43.36;101107.66;;;;-53
2020/05/30 04:09:26;;;;;;;1.33;1.21;;;;;;;19.51;43.40;101103.59;;;;-52
2020/05/30 04:15:28;;;;;;;1.44;1.34;;;;;;;19.52;43.36;101105.88;;;;-53
2020/05/30 04:18:23;;;;;;;1.30;1.20;;;;;;;19.52;43.29;101105.98;;;;-52
2020/05/30 04:21:25;;;;;;;1.41;1.31;;;;;;;19.51;43.21;101101.84;;;;-52
2020/05/30 04:27:33;;;;;;;1.36;1.26;;;;;;;19.52;43.20;101116.59;;;;-53
2020/05/30 04:34:18;;;;;;;1.31;1.21;;;;;;;19.50;43.24;101109.40;;;;-53
2020/05/30 04:37:26;;;;;;;1.43;1.33;;;;;;;19.51;43.18;101111.89;;;;-53
2020/05/30 04:40:17;;;;;;;1.35;1.25;;;;;;;19.51;43.20;101113.30;;;;-52
2020/05/30 04:43:27;;;;;;;1.40;1.30;;;;;;;19.51;43.17;101111.85;;;;-52
2020/05/30 04:51:25;;;;;;;1.79;1.40;;;;;;;19.51;43.31;101122.23;;;;-48
2020/05/30 04:57:23;;;;;;;1.48;1.38;;;;;;;19.51;43.22;101128.37;;;;-48
2020/05/30 05:03:26;;;;;;;1.53;1.43;;;;;;;19.50;43.18;101132.02;;;;-48
2020/05/30 05:09:14;;;;;;;1.39;1.29;;;;;;;19.51;43.20;101138.48;;;;-48
2020/05/30 05:22:13;;;;;;;4.22;1.60;;;;;;;19.52;43.20;101146.69;;;;-50
2020/05/30 05:25:17;;;;;;;3.60;1.61;;;;;;;19.44;40.63;101144.51;;;;-55
2020/05/30 05:28:20;;;;;;;3.84;1.61;;;;;;;19.35;39.76;101142.06;;;;-51
2020/05/30 05:38:36;;;;;;;3.69;1.70;;;;;;;19.34;40.58;101138.42;;;;-54
2020/05/30 05:41:18;;;;;;;1.59;1.49;;;;;;;19.38;41.00;101135.53;;;;-54
2020/05/30 05:44:16;;;;;;;2.91;1.52;;;;;;;19.41;41.26;101137.70;;;;-50
2020/05/30 05:47:20;;;;;;;1.86;1.46;;;;;;;19.44;41.41;101141.05;;;;-51
2020/05/30 05:50:13;;;;;;;3.69;1.60;;;;;;;19.47;41.59;101138.77;;;;-51
2020/05/30 05:53:13;;;;;;;2.79;1.53;;;;;;;19.48;41.66;101142.80;;;;-52
2020/05/30 05:56:30;;;;;;;2.35;1.59;;;;;;;19.51;41.64;101140.61;;;;-54
2020/05/30 05:59:13;;;;;;;1.88;1.61;;;;;;;19.51;42.02;101144.23;;;;-53
2020/05/30 06:02:13;;;;;;;2.49;1.47;;;;;;;19.51;41.92;101142.72;;;;-55
2020/05/30 06:05:13;;;;;;;3.79;1.56;;;;;;;19.51;41.90;101139.94;;;;-54
2020/05/30 06:08:13;;;;;;;1.91;1.50;;;;;;;19.51;41.92;101138.98;;;;-54
2020/05/30 06:11:13;;;;;;;1.57;1.47;;;;;;;19.51;41.97;101142.22;;;;-55
2020/05/30 06:14:13;;;;;;;1.49;1.39;;;;;;;19.51;42.02;101139.20;;;;-54
2020/05/30 06:20:17;;;;;;;1.99;1.50;;;;;;;19.51;42.18;101136.92;;;;-54
2020/05/30 06:23:13;;;;;;;1.52;1.39;;;;;;;19.50;42.13;101131.02;;;;-50
2020/05/30 06:26:13;;;;;;;1.61;1.51;;;;;;;19.51;42.19;101132.45;;;;-51
2020/05/30 06:29:13;;;;;;;1.51;1.41;;;;;;;19.50;42.19;101135.37;;;;-55
2020/05/30 06:32:13;;;;;;;2.26;1.45;;;;;;;19.50;42.27;101135.92;;;;-55
2020/05/30 06:35:13;;;;;;;1.49;1.39;;;;;;;19.52;42.30;101134.35;;;;-54
2020/05/30 06:38:13;;;;;;;2.99;1.55;;;;;;;19.51;42.32;101132.84;;;;-54
2020/05/30 06:41:13;;;;;;;1.87;1.50;;;;;;;19.51;42.37;101128.94;;;;-54
2020/05/30 06:44:16;;;;;;;1.39;1.29;;;;;;;19.51;42.35;101131.56;;;;-54
2020/05/30 06:47:17;;;;;;;2.05;1.47;;;;;;;19.52;42.41;101132.34;;;;-55
2020/05/30 06:50:17;;;;;;;1.53;1.40;;;;;;;19.51;42.39;101129.39;;;;-54
2020/05/30 06:53:16;;;;;;;1.71;1.51;;;;;;;19.51;42.48;101130.95;;;;-55
2020/05/30 06:56:13;;;;;;;10.98;2.25;;;;;;;19.51;42.51;101127.05;;;;-54
2020/05/30 06:59:15;;;;;;;1.42;1.32;;;;;;;19.51;42.50;101129.89;;;;-54
2020/05/30 07:02:14;;;;;;;1.75;1.41;;;;;;;19.51;42.56;101129.21;;;;-54
2020/05/30 07:05:13;;;;;;;1.68;1.44;;;;;;;19.52;42.56;101133.63;;;;-54
2020/05/30 07:08:13;;;;;;;1.53;1.43;;;;;;;19.53;42.61;101137.26;;;;-54
2020/05/30 07:11:13;;;;;;;1.57;1.39;;;;;;;19.53;42.61;101139.04;;;;-54
2020/05/30 07:14:13;;;;;;;1.48;1.38;;;;;;;19.53;42.62;101133.06;;;;-55
2020/05/30 07:17:25;;;;;;;1.55;1.45;;;;;;;19.52;42.63;101132.19;;;;-55
2020/05/30 07:20:19;;;;;;;1.40;1.30;;;;;;;19.52;42.62;101131.13;;;;-54
2020/05/30 07:26:13;;;;;;;1.50;1.40;;;;;;;19.53;42.65;101131.83;;;;-55
2020/05/30 07:29:28;;;;;;;1.51;1.40;;;;;;;19.53;42.64;101132.02;;;;-54
2020/05/30 07:32:22;;;;;;;1.50;1.40;;;;;;;19.53;42.67;101129.72;;;;-54
2020/05/30 07:38:14;;;;;;;2.26;1.43;;;;;;;19.54;42.85;101127.77;;;;-54
2020/05/30 07:41:16;;;;;;;1.71;1.40;;;;;;;19.54;42.84;101123.23;;;;-54
2020/05/30 07:44:14;;;;;;;1.41;1.31;;;;;;;19.54;42.84;101121.58;;;;-54
2020/05/30 07:50:27;;;;;;;1.40;1.30;;;;;;;19.53;42.77;101108.89;;;;-55
2020/05/30 07:53:20;;;;;;;1.51;1.41;;;;;;;19.53;42.78;101105.54;;;;-54
2020/05/30 07:56:17;;;;;;;1.67;1.30;;;;;;;19.54;42.80;101099.28;;;;-54
2020/05/30 08:03:15;;;;;;;1.39;1.25;;;;;;;19.54;42.78;101092.58;;;;-54
2020/05/30 08:06:13;;;;;;;1.77;1.31;;;;;;;19.54;42.81;101090.91;;;;-54
2020/05/30 08:12:22;;;;;;;1.35;1.25;;;;;;;19.54;42.90;101084.54;;;;-54
2020/05/30 08:20:18;;;;;;;1.77;1.40;;;;;;;19.54;42.88;101087.06;;;;-54
2020/05/30 08:23:13;;;;;;;3.75;1.40;;;;;;;19.54;42.88;101087.89;;;;-55
2020/05/30 08:26:13;;;;;;;1.51;1.40;;;;;;;19.54;42.95;101084.03;;;;-53
2020/05/30 08:29:13;;;;;;;1.63;1.40;;;;;;;19.54;42.95;101086.05;;;;-52
2020/05/30 08:32:13;;;;;;;15.89;2.05;;;;;;;19.55;43.01;101088.28;;;;-47
2020/05/30 08:35:13;;;;;;;1.75;1.43;;;;;;;19.56;43.04;101087.78;;;;-50
2020/05/30 08:38:13;;;;;;;3.04;1.45;;;;;;;19.58;43.28;101090.05;;;;-48
2020/05/30 08:41:13;;;;;;;4.01;1.60;;;;;;;19.58;43.31;101079.23;;;;-53
2020/05/30 08:44:15;;;;;;;4.80;1.67;;;;;;;19.60;43.35;101079.95;;;;-53
2020/05/30 08:47:23;;;;;;;2.06;1.59;;;;;;;19.61;43.37;101072.63;;;;-53
2020/05/30 08:50:28;;;;;;;3.08;1.50;;;;;;;19.61;43.36;101074.53;;;;-53
2020/05/30 08:53:13;;;;;;;4.70;1.64;;;;;;;19.61;43.33;101065.22;;;;-53
2020/05/30 08:56:13;;;;;;;3.23;1.74;;;;;;;19.63;43.39;101068.34;;;;-49
2020/05/30 08:59:13;;;;;;;4.51;1.73;;;;;;;19.64;43.43;101066.31;;;;-49
2020/05/30 09:02:13;;;;;;;4.18;1.75;;;;;;;19.65;43.46;101064.20;;;;-49
2020/05/30 09:09:14;;;;;;;3.19;1.77;;;;;;;19.68;43.66;101062.84;;;;-50
2020/05/30 09:12:22;;;;;;;4.33;1.75;;;;;;;19.69;43.71;101056.47;;;;-53
2020/05/30 09:15:21;;;;;;;3.34;1.87;;;;;;;19.70;43.82;101055.18;;;;-52
2020/05/30 09:19:09;;;;;;;5.93;1.88;;;;;;;19.71;43.79;101057.25;;;;-53
2020/05/30 09:22:28;;;;;;;3.53;1.63;;;;;;;19.73;43.93;101056.14;;;;-50
2020/05/30 09:25:18;;;;;;;3.99;1.77;;;;;;;19.74;43.89;101053.05;;;;-50
2020/05/30 09:28:13;;;;;;;4.39;1.80;;;;;;;19.75;43.75;101044.63;;;;-53
2020/05/30 09:31:20;;;;;;;2.55;1.79;;;;;;;19.76;43.84;101047.25;;;;-52
2020/05/30 09:34:20;;;;;;;2.59;1.66;;;;;;;19.78;43.79;101044.51;;;;-53
2020/05/30 09:43:13;;;;;;;5.23;1.85;;;;;;;19.82;43.95;101034.83;;;;-50
2020/05/30 09:46:13;;;;;;;2.37;1.73;;;;;;;19.82;43.80;101030.91;;;;-50
2020/05/30 09:49:28;;;;;;;5.11;1.60;;;;;;;19.83;43.85;101035.39;;;;-53
2020/05/30 09:52:16;;;;;;;3.09;1.73;;;;;;;19.83;43.83;101031.86;;;;-51
2020/05/30 09:55:17;;;;;;;3.87;1.64;;;;;;;19.84;43.81;101027.28;;;;-51
2020/05/30 09:58:13;;;;;;;1.86;1.57;;;;;;;19.84;43.82;101024.81;;;;-50
2020/05/30 10:01:20;;;;;;;4.64;1.76;;;;;;;19.85;43.79;101022.81;;;;-50
2020/05/30 10:04:13;;;;;;;3.73;1.76;;;;;;;19.86;43.79;101027.66;;;;-56
2020/05/30 10:10:13;;;;;;;3.10;1.68;;;;;;;19.86;43.96;101022.73;;;;-49
2020/05/30 10:16:32;;;;;;;5.57;1.62;;;;;;;19.88;43.92;101020.38;;;;-49
2020/05/30 10:19:13;;;;;;;2.27;1.61;;;;;;;19.89;43.90;101017.92;;;;-46
2020/05/30 10:22:13;;;;;;;2.07;1.60;;;;;;;19.89;43.92;101015.48;;;;-48
2020/05/30 10:26:05;;;;;;;2.11;1.55;;;;;;;19.90;43.86;101014.13;;;;-49
2020/05/30 10:28:13;;;;;;;2.24;1.61;;;;;;;19.91;43.87;101009.04;;;;-50
2020/05/30 10:31:25;;;;;;;2.38;1.59;;;;;;;19.91;43.88;101008.64;;;;-50
2020/05/30 10:34:59;;;;;;;2.71;1.86;;;;;;;19.91;43.86;101006.03;;;;-47
2020/05/30 10:38:13;;;;;;;3.16;1.61;;;;;;;19.92;43.79;101000.44;;;;-45
2020/05/30 10:41:13;;;;;;;3.92;1.59;;;;;;;19.92;43.88;101001.78;;;;-47
2020/05/30 10:44:13;;;;;;;4.39;1.53;;;;;;;19.93;43.67;100997.34;;;;-47
2020/05/30 10:47:13;;;;;;;2.99;1.47;;;;;;;19.93;43.76;100999.92;;;;-47
2020/05/30 10:50:13;;;;;;;3.37;1.69;;;;;;;19.93;43.71;100998.64;;;;-47
2020/05/30 10:53:13;;;;;;;3.16;1.49;;;;;;;19.91;43.63;101000.27;;;;-46
2020/05/30 10:56:13;;;;;;;3.73;1.67;;;;;;;19.91;43.63;100998.08;;;;-47
2020/05/30 10:59:13;;;;;;;3.07;1.63;;;;;;;19.91;43.66;100988.25;;;;-47
2020/05/30 11:02:13;;;;;;;2.88;1.59;;;;;;;19.90;43.57;100989.72;;;;-47
2020/05/30 11:05:13;;;;;;;1.70;1.45;;;;;;;19.90;43.58;100986.45;;;;-47
2020/05/30 11:08:13;;;;;;;2.77;1.55;;;;;;;19.90;43.56;100979.42;;;;-46
2020/05/30 11:11:13;;;;;;;2.53;1.74;;;;;;;19.89;43.57;100986.08;;;;-47
2020/05/30 11:14:13;;;;;;;2.29;1.63;;;;;;;19.89;43.54;100979.81;;;;-47
2020/05/30 11:17:13;;;;;;;2.21;1.50;;;;;;;19.89;43.48;100980.20;;;;-49
2020/05/30 11:20:13;;;;;;;1.89;1.51;;;;;;;19.89;43.51;100966.86;;;;-47
2020/05/30 11:23:13;;;;;;;3.85;1.56;;;;;;;19.88;43.53;100969.70;;;;-47
2020/05/30 11:26:13;;;;;;;3.27;1.64;;;;;;;19.88;43.46;100967.09;;;;-47
2020/05/30 11:29:13;;;;;;;3.91;1.61;;;;;;;19.88;43.47;100966.19;;;;-47
2020/05/30 11:32:13;;;;;;;3.89;1.67;;;;;;;19.88;43.46;100967.98;;;;-47
2020/05/30 11:35:13;;;;;;;1.77;1.64;;;;;;;19.88;43.44;100965.69;;;;-47
2020/05/30 11:38:13;;;;;;;2.71;1.62;;;;;;;19.88;43.42;100956.52;;;;-47
2020/05/30 11:41:13;;;;;;;2.38;1.60;;;;;;;19.88;43.43;100961.66;;;;-47
2020/05/30 11:44:13;;;;;;;2.65;1.51;;;;;;;19.89;43.41;100960.92;;;;-46
2020/05/30 11:47:13;;;;;;;5.07;1.58;;;;;;;19.88;43.37;100951.83;;;;-47
2020/05/30 11:50:13;;;;;;;1.99;1.57;;;;;;;19.88;43.33;100950.89;;;;-47
2020/05/30 11:53:13;;;;;;;2.18;1.47;;;;;;;19.88;43.33;100944.95;;;;-47
2020/05/30 11:56:12;;;;;;;2.22;1.60;;;;;;;19.88;43.37;100948.64;;;;-51
2020/05/30 11:59:13;;;;;;;2.89;1.51;;;;;;;19.89;43.39;100948.02;;;;-50
2020/05/30 12:02:13;;;;;;;2.35;1.48;;;;;;;19.88;43.35;100941.20;;;;-51
2020/05/30 12:05:13;;;;;;;2.46;1.56;;;;;;;19.89;43.37;100933.44;;;;-51
2020/05/30 12:08:13;;;;;;;2.10;1.50;;;;;;;19.89;43.34;100931.42;;;;-50
2020/05/30 12:11:13;;;;;;;2.51;1.74;;;;;;;19.89;43.36;100939.64;;;;-50
2020/05/30 12:14:13;;;;;;;1.55;1.45;;;;;;;19.88;43.36;100933.79;;;;-50
2020/05/30 12:17:13;;;;;;;2.05;1.55;;;;;;;19.89;43.34;100927.30;;;;-50
2020/05/30 12:20:13;;;;;;;2.55;1.51;;;;;;;19.88;43.39;100932.72;;;;-50
2020/05/30 12:23:12;;;;;;;1.93;1.60;;;;;;;19.89;43.34;100934.52;;;;-49
2020/05/30 12:26:12;;;;;;;2.26;1.70;;;;;;;19.88;43.31;100937.69;;;;-49
2020/05/30 12:29:12;;;;;;;2.78;1.84;;;;;;;19.88;43.34;100937.24;;;;-50
2020/05/30 12:32:13;;;;;;;2.43;1.80;;;;;;;19.88;43.32;100925.74;;;;-49
2020/05/30 12:35:13;;;;;;;2.44;1.75;;;;;;;19.88;43.34;100924.01;;;;-50
2020/05/30 12:38:13;;;;;;;2.88;1.75;;;;;;;19.88;43.35;100914.95;;;;-50
2020/05/30 12:41:13;;;;;;;2.99;1.83;;;;;;;19.88;43.35;100906.23;;;;-50
2020/05/30 12:44:13;;;;;;;1.73;1.60;;;;;;;19.88;43.37;100904.00;;;;-50
2020/05/30 12:47:12;;;;;;;2.87;1.77;;;;;;;19.89;43.31;100906.02;;;;-49
2020/05/30 12:50:12;;;;;;;2.02;1.59;;;;;;;19.89;43.34;100906.22;;;;-50
2020/05/30 12:53:12;;;;;;;2.21;1.65;;;;;;;19.89;43.36;100900.81;;;;-49
2020/05/30 12:56:12;;;;;;;1.99;1.59;;;;;;;19.88;43.37;100899.77;;;;-50
2020/05/30 12:59:13;;;;;;;2.59;1.63;;;;;;;19.88;43.33;100894.23;;;;-49
2020/05/30 13:02:13;;;;;;;2.67;1.60;;;;;;;19.88;43.31;100894.61;;;;-49
2020/05/30 13:05:13;;;;;;;2.37;1.67;;;;;;;19.88;43.34;100900.70;;;;-51
2020/05/30 13:08:13;;;;;;;2.23;1.78;;;;;;;19.88;43.32;100898.86;;;;-51
2020/05/30 13:11:13;;;;;;;1.99;1.77;;;;;;;19.88;43.31;100898.19;;;;-51
2020/05/30 13:14:13;;;;;;;2.26;1.69;;;;;;;19.88;43.33;100901.03;;;;-51
2020/05/30 13:17:13;;;;;;;1.92;1.70;;;;;;;19.88;43.31;100903.28;;;;-51
2020/05/30 13:20:12;;;;;;;2.21;1.71;;;;;;;19.88;43.25;100897.96;;;;-51
2020/05/30 13:23:13;;;;;;;2.95;1.87;;;;;;;19.88;43.26;100903.21;;;;-47
2020/05/30 13:26:13;;;;;;;2.55;1.91;;;;;;;19.87;43.27;100900.26;;;;-47
2020/05/30 13:29:13;;;;;;;2.13;1.70;;;;;;;19.87;43.30;100900.14;;;;-47
2020/05/30 13:32:13;;;;;;;2.55;1.79;;;;;;;19.87;43.30;100902.73;;;;-47
2020/05/30 13:35:13;;;;;;;1.92;1.70;;;;;;;19.87;43.22;100892.67;;;;-47
2020/05/30 13:38:13;;;;;;;2.49;1.77;;;;;;;19.87;43.22;100897.64;;;;-48
2020/05/30 13:41:13;;;;;;;2.63;1.77;;;;;;;19.87;43.22;100900.48;;;;-47
2020/05/30 13:44:13;;;;;;;1.75;1.63;;;;;;;19.87;43.25;100900.32;;;;-47
2020/05/30 13:47:13;;;;;;;2.72;1.91;;;;;;;19.87;43.26;100900.26;;;;-47
2020/05/30 13:50:13;;;;;;;1.63;1.53;;;;;;;19.87;43.25;100895.46;;;;-47
2020/05/30 13:53:13;;;;;;;3.28;2.03;;;;;;;19.88;43.23;100898.86;;;;-46
2020/05/30 13:56:13;;;;;;;2.07;1.67;;;;;;;19.88;43.21;100895.16;;;;-47
2020/05/30 13:59:12;;;;;;;2.02;1.70;;;;;;;19.87;43.30;100883.55;;;;-54
2020/05/30 14:02:13;;;;;;;6.55;1.97;;;;;;;19.90;43.50;100887.33;;;;-49
2020/05/30 14:05:13;;;;;;;7.23;2.02;;;;;;;19.94;43.65;100888.88;;;;-50
2020/05/30 14:08:13;;;;;;;2.76;1.93;;;;;;;19.97;43.72;100881.54;;;;-53
2020/05/30 14:11:13;;;;;;;5.65;1.97;;;;;;;19.99;43.96;100890.05;;;;-52
2020/05/30 14:14:13;;;;;;;5.33;1.56;;;;;;;20.01;43.96;100883.91;;;;-51
2020/05/30 14:17:13;;;;;;;6.29;1.86;;;;;;;20.02;43.98;100884.80;;;;-50
2020/05/30 14:20:12;;;;;;;5.07;1.80;;;;;;;20.01;44.14;100877.65;;;;-51
2020/05/30 14:23:12;;;;;;;7.26;1.89;;;;;;;20.02;44.10;100885.17;;;;-51
2020/05/30 14:26:12;;;;;;;4.83;1.75;;;;;;;20.03;44.09;100890.25;;;;-56
2020/05/30 14:29:12;;;;;;;4.54;1.87;;;;;;;20.03;44.07;100883.27;;;;-51
2020/05/30 14:32:12;;;;;;;2.93;1.93;;;;;;;20.03;43.98;100884.05;;;;-51
2020/05/30 14:35:12;;;;;;;3.83;2.05;;;;;;;20.04;43.99;100880.14;;;;-51
2020/05/30 14:38:13;;;;;;;3.47;1.90;;;;;;;20.05;43.98;100873.20;;;;-51
2020/05/30 14:41:13;;;;;;;3.37;1.85;;;;;;;20.07;43.95;100875.25;;;;-55
2020/05/30 14:44:13;;;;;;;5.19;1.87;;;;;;;20.07;43.98;100879.45;;;;-52
2020/05/30 14:47:13;;;;;;;4.63;1.98;;;;;;;20.08;43.87;100874.02;;;;-52
2020/05/30 14:50:13;;;;;;;5.03;1.95;;;;;;;20.09;43.83;100873.74;;;;-52
2020/05/30 14:53:12;;;;;;;6.34;1.75;;;;;;;20.11;43.06;100863.54;;;;-53
2020/05/30 14:56:12;;;;;;;4.93;1.89;;;;;;;20.12;43.34;100875.67;;;;-54
2020/05/30 14:59:12;;;;;;;2.60;1.70;;;;;;;20.11;43.60;100873.17;;;;-53
2020/05/30 15:02:13;;;;;;;8.05;2.09;;;;;;;20.10;43.70;100873.72;;;;-54
2020/05/30 15:05:13;;;;;;;3.73;1.85;;;;;;;20.09;43.75;100877.94;;;;-53
2020/05/30 15:08:13;;;;;;;2.75;1.87;;;;;;;20.09;43.66;100875.58;;;;-53
2020/05/30 15:11:13;;;;;;;4.13;2.01;;;;;;;20.08;43.67;100874.80;;;;-53
2020/05/30 15:14:13;;;;;;;4.55;2.00;;;;;;;20.08;43.71;100868.16;;;;-51
2020/05/30 15:17:13;;;;;;;4.48;1.97;;;;;;;20.10;43.69;100873.11;;;;-52
2020/05/30 15:20:13;;;;;;;6.31;2.16;;;;;;;20.12;43.74;100861.31;;;;-51
2020/05/30 15:23:12;;;;;;;5.51;2.23;;;;;;;20.14;43.72;100859.67;;;;-54
2020/05/30 15:26:12;;;;;;;6.81;2.24;;;;;;;20.15;43.74;100856.86;;;;-54
2020/05/30 15:29:12;;;;;;;5.79;2.23;;;;;;;20.15;43.74;100863.06;;;;-54
2020/05/30 15:32:12;;;;;;;4.40;2.57;;;;;;;20.16;43.75;100869.48;;;;-52
2020/05/30 15:35:13;;;;;;;4.22;2.45;;;;;;;20.16;43.83;100864.19;;;;-54
2020/05/30 15:38:13;;;;;;;4.67;2.58;;;;;;;20.17;43.81;100872.95;;;;-53
2020/05/30 15:41:13;;;;;;;8.25;2.98;;;;;;;20.17;43.80;100868.33;;;;-52
2020/05/30 15:44:15;;;;;;;5.85;2.94;;;;;;;20.18;43.83;100869.81;;;;-48
2020/05/30 15:47:13;;;;;;;6.79;3.29;;;;;;;20.17;43.74;100869.88;;;;-49
2020/05/30 15:50:12;;;;;;;8.13;3.33;;;;;;;20.19;43.90;100873.11;;;;-51
2020/05/30 15:53:13;;;;;;;6.62;3.24;;;;;;;20.20;43.88;100871.82;;;;-52
2020/05/30 15:56:12;;;;;;;6.65;3.03;;;;;;;20.22;43.90;100866.81;;;;-51
2020/05/30 15:59:12;;;;;;;9.85;3.49;;;;;;;20.23;43.84;100868.31;;;;-50
2020/05/30 16:02:13;;;;;;;7.04;3.07;;;;;;;20.24;44.01;100867.76;;;;-51
2020/05/30 16:06:13;;;;;;;9.95;3.59;;;;;;;20.24;43.88;100867.59;;;;-51
2020/05/30 16:09:13;;;;;;;6.45;3.35;;;;;;;20.24;44.08;100864.41;;;;-50
2020/05/30 16:12:13;;;;;;;8.27;3.43;;;;;;;20.23;44.06;100869.55;;;;-48
2020/05/30 16:15:13;;;;;;;6.67;3.37;;;;;;;20.24;43.93;100871.58;;;;-45
2020/05/30 16:18:12;;;;;;;7.00;3.12;;;;;;;20.24;43.98;100866.55;;;;-51
2020/05/30 16:21:12;;;;;;;5.81;3.21;;;;;;;20.23;43.96;100860.32;;;;-46
2020/05/30 16:24:12;;;;;;;7.76;2.96;;;;;;;20.24;44.01;100863.90;;;;-46
2020/05/30 16:27:12;;;;;;;8.59;3.41;;;;;;;20.24;44.02;100862.79;;;;-51
2020/05/30 16:30:12;;;;;;;5.97;3.40;;;;;;;20.24;44.01;100862.33;;;;-50
2020/05/30 16:33:13;;;;;;;7.94;3.07;;;;;;;20.24;44.07;100861.17;;;;-50
2020/05/30 16:36:13;;;;;;;6.33;2.95;;;;;;;20.25;44.11;100861.73;;;;-50
2020/05/30 16:39:13;;;;;;;5.63;2.91;;;;;;;20.25;44.04;100862.56;;;;-48
2020/05/30 16:42:13;;;;;;;6.10;3.33;;;;;;;20.24;44.02;100861.05;;;;-52
2020/05/30 16:45:12;;;;;;;6.99;3.21;;;;;;;20.25;44.07;100862.56;;;;-52
2020/05/30 16:48:12;;;;;;;6.85;2.99;;;;;;;20.25;44.01;100861.88;;;;-56
2020/05/30 16:51:12;;;;;;;6.54;3.55;;;;;;;20.25;43.99;100861.53;;;;-49
2020/05/30 16:54:12;;;;;;;7.45;3.13;;;;;;;20.25;43.97;100861.03;;;;-47
2020/05/30 16:57:12;;;;;;;4.39;2.93;;;;;;;20.26;44.00;100866.45;;;;-51
2020/05/30 17:00:13;;;;;;;5.55;3.20;;;;;;;20.26;44.00;100864.06;;;;-48
2020/05/30 17:03:13;;;;;;;5.74;3.06;;;;;;;20.26;44.02;100863.09;;;;-46
2020/05/30 17:06:13;;;;;;;6.86;2.83;;;;;;;20.26;43.91;100868.98;;;;-50
2020/05/30 17:09:13;;;;;;;5.94;2.76;;;;;;;20.26;43.93;100867.58;;;;-50
2020/05/30 17:12:12;;;;;;;4.30;2.71;;;;;;;20.25;43.98;100873.27;;;;-50
2020/05/30 17:15:12;;;;;;;4.47;2.61;;;;;;;20.24;43.92;100876.48;;;;-50
2020/05/30 17:18:12;;;;;;;5.93;2.93;;;;;;;20.22;43.98;100876.45;;;;-50
2020/05/30 17:21:12;;;;;;;4.78;2.94;;;;;;;20.21;43.88;100876.95;;;;-50
2020/05/30 17:24:12;;;;;;;4.29;2.79;;;;;;;20.21;43.90;100872.30;;;;-50
2020/05/30 17:27:12;;;;;;;4.31;2.66;;;;;;;20.20;43.85;100876.78;;;;-51
2020/05/30 17:30:13;;;;;;;4.50;2.55;;;;;;;20.20;43.86;100875.11;;;;-49
2020/05/30 17:33:13;;;;;;;4.48;2.75;;;;;;;20.19;43.85;100875.84;;;;-51
2020/05/30 17:36:13;;;;;;;4.45;2.64;;;;;;;20.18;43.84;100878.77;;;;-50
2020/05/30 17:39:13;;;;;;;5.28;2.95;;;;;;;20.18;43.84;100878.64;;;;-50
2020/05/30 17:42:12;;;;;;;7.21;2.62;;;;;;;20.17;43.80;100886.20;;;;-50
2020/05/30 17:45:12;;;;;;;4.34;2.79;;;;;;;20.17;43.80;100888.61;;;;-50
2020/05/30 17:48:12;;;;;;;3.49;2.45;;;;;;;20.16;43.78;100890.12;;;;-52
2020/05/30 17:51:12;;;;;;;4.40;2.67;;;;;;;20.17;43.81;100893.41;;;;-52
2020/05/30 17:54:12;;;;;;;4.45;2.78;;;;;;;20.16;43.81;100890.00;;;;-52
2020/05/30 17:57:12;;;;;;;3.63;2.55;;;;;;;20.14;43.79;100893.88;;;;-53
2020/05/30 18:00:13;;;;;;;3.32;2.45;;;;;;;20.15;43.76;100899.02;;;;-52
2020/05/30 18:03:13;;;;;;;4.33;2.60;;;;;;;20.14;43.83;100900.91;;;;-53
2020/05/30 18:06:13;;;;;;;3.50;2.50;;;;;;;20.14;43.76;100898.06;;;;-56
2020/05/30 18:09:12;;;;;;;3.77;2.67;;;;;;;20.13;43.76;100898.19;;;;-55
2020/05/30 18:12:12;;;;;;;4.79;2.56;;;;;;;20.13;43.75;100896.74;;;;-55
2020/05/30 18:15:12;;;;;;;4.82;2.51;;;;;;;20.13;43.70;100900.09;;;;-55
2020/05/30 18:18:12;;;;;;;3.86;2.38;;;;;;;20.12;43.79;100899.48;;;;-55
2020/05/30 18:21:12;;;;;;;4.17;2.41;;;;;;;20.12;43.74;100900.98;;;;-55
2020/05/30 18:24:12;;;;;;;3.73;2.41;;;;;;;20.12;43.70;100904.40;;;;-55
2020/05/30 18:27:12;;;;;;;3.23;2.29;;;;;;;20.11;43.73;100899.92;;;;-55
2020/05/30 18:30:12;;;;;;;4.51;2.56;;;;;;;20.12;43.72;100902.33;;;;-55
2020/05/30 18:33:12;;;;;;;3.13;2.55;;;;;;;20.10;43.67;100904.75;;;;-56
2020/05/30 18:36:12;;;;;;;3.59;2.39;;;;;;;20.11;43.69;100906.64;;;;-52
2020/05/30 18:39:13;;;;;;;3.69;2.46;;;;;;;20.10;43.73;100909.11;;;;-52
2020/05/30 18:42:12;;;;;;;6.53;2.54;;;;;;;20.09;43.70;100914.09;;;;-51
2020/05/30 18:45:12;;;;;;;3.78;2.48;;;;;;;20.10;43.73;100912.63;;;;-50
2020/05/30 18:48:12;;;;;;;3.01;2.39;;;;;;;20.11;43.77;100916.36;;;;-52
2020/05/30 18:51:21;;;;;;;5.19;2.30;;;;;;;20.12;43.77;100920.66;;;;-53
2020/05/30 18:54:12;;;;;;;4.60;2.57;;;;;;;20.12;43.79;100920.10;;;;-52